createdAt,value
2018-07-01T00:00:24.024Z,19.40
2018-07-01T00:02:53.436Z,19.40
2018-07-01T00:05:23.021Z,19.30
2018-07-01T00:07:52.337Z,19.30
2018-07-01T00:10:21.899Z,19.30
2018-07-01T00:12:51.199Z,19.30
2018-07-01T00:15:20.557Z,19.30
2018-07-01T00:17:49.809Z,19.20
2018-07-01T00:20:19.119Z,19.10
2018-07-01T00:22:48.465Z,19.10
2018-07-01T00:25:17.789Z,19.00
2018-07-01T00:27:47.029Z,18.90
2018-07-01T00:30:16.369Z,18.80
2018-07-01T00:32:45.652Z,18.80
2018-07-01T00:35:14.866Z,18.80
2018-07-01T00:37:44.079Z,18.70
2018-07-01T00:40:13.520Z,18.70
2018-07-01T00:42:42.748Z,18.70
2018-07-01T00:45:12.012Z,18.70
2018-07-01T00:47:42.073Z,18.70
2018-07-01T00:50:11.384Z,18.70
2018-07-01T00:52:40.615Z,18.60
2018-07-01T00:55:09.968Z,18.60
2018-07-01T00:57:39.395Z,18.50
2018-07-01T01:00:08.643Z,18.40
2018-07-01T01:02:37.927Z,18.30
2018-07-01T01:05:08.088Z,18.30
2018-07-01T01:07:37.482Z,18.30
2018-07-01T01:10:06.699Z,18.20
2018-07-01T01:12:36.095Z,18.20
2018-07-01T01:15:05.806Z,18.10
2018-07-01T01:17:35.832Z,18.20
2018-07-01T01:20:05.386Z,18.10
2018-07-01T01:22:34.770Z,18.10
2018-07-01T01:25:04.504Z,18.10
2018-07-01T01:27:33.780Z,18.10
2018-07-01T01:30:03.283Z,18.10
2018-07-01T01:35:01.632Z,18.10
2018-07-01T01:37:30.940Z,18.10
2018-07-01T01:40:00.614Z,18.10
2018-07-01T01:42:40.340Z,18.10
2018-07-01T01:45:17.206Z,18.00
2018-07-01T01:47:53.722Z,18.10
2018-07-01T01:50:29.762Z,18.10
2018-07-01T01:53:08.815Z,18.10
2018-07-01T01:55:44.412Z,18.10
2018-07-01T01:58:19.092Z,18.00
2018-07-01T02:01:08.533Z,18.00
2018-07-01T02:03:42.376Z,17.90
2018-07-01T02:06:17.807Z,17.90
2018-07-01T02:09:49.940Z,17.90
2018-07-01T02:12:19.898Z,17.80
2018-07-01T02:14:56.050Z,17.70
2018-07-01T02:17:32.330Z,17.70
2018-07-01T02:20:01.860Z,17.60
2018-07-01T02:22:40.664Z,17.60
2018-07-01T02:25:13.848Z,17.50
2018-07-01T02:27:43.231Z,17.50
2018-07-01T02:30:13.301Z,17.50
2018-07-01T02:32:42.664Z,17.40
2018-07-01T02:35:11.990Z,17.40
2018-07-01T02:37:41.336Z,17.40
2018-07-01T02:40:10.612Z,17.30
2018-07-01T02:42:40.005Z,17.30
2018-07-01T02:45:10.064Z,17.30
2018-07-01T02:47:39.336Z,17.20
2018-07-01T02:50:08.723Z,17.10
2018-07-01T02:52:38.428Z,17.10
2018-07-01T02:55:07.804Z,17.00
2018-07-01T02:57:37.199Z,16.90
2018-07-01T03:00:06.492Z,16.90
2018-07-01T03:02:36.863Z,16.90
2018-07-01T03:05:06.348Z,16.80
2018-07-01T03:07:36.316Z,16.80
2018-07-01T03:10:05.633Z,16.90
2018-07-01T03:12:34.895Z,16.90
2018-07-01T03:15:05.439Z,16.90
2018-07-01T03:17:35.437Z,16.90
2018-07-01T03:20:04.765Z,16.90
2018-07-01T03:22:34.822Z,16.90
2018-07-01T03:25:04.243Z,16.90
2018-07-01T03:27:34.043Z,17.00
2018-07-01T03:30:04.316Z,16.90
2018-07-01T03:32:34.031Z,16.90
2018-07-01T03:35:03.440Z,17.00
2018-07-01T03:37:32.676Z,16.90
2018-07-01T03:40:02.219Z,17.00
2018-07-01T03:42:31.471Z,17.00
2018-07-01T03:45:00.751Z,17.00
2018-07-01T03:47:30.116Z,17.00
2018-07-01T03:49:59.392Z,17.00
2018-07-01T03:52:28.797Z,17.00
2018-07-01T03:54:58.998Z,17.10
2018-07-01T03:57:28.863Z,17.10
2018-07-01T03:59:58.267Z,17.10
2018-07-01T04:02:27.687Z,17.10
2018-07-01T04:04:57.147Z,17.20
2018-07-01T04:07:26.640Z,17.20
2018-07-01T04:09:55.917Z,17.10
2018-07-01T04:12:25.229Z,17.20
2018-07-01T04:14:54.632Z,17.20
2018-07-01T04:17:23.926Z,17.20
2018-07-01T04:19:53.244Z,17.20
2018-07-01T04:22:23.428Z,17.20
2018-07-01T04:24:52.694Z,17.20
2018-07-01T04:27:21.984Z,17.30
2018-07-01T04:29:52.152Z,17.30
2018-07-01T04:32:21.519Z,17.30
2018-07-01T04:34:50.973Z,17.30
2018-07-01T04:37:20.489Z,17.40
2018-07-01T04:39:50.444Z,17.40
2018-07-01T04:42:19.685Z,17.50
2018-07-01T04:44:49.187Z,17.50
2018-07-01T04:47:18.470Z,17.50
2018-07-01T04:49:48.420Z,17.60
2018-07-01T04:52:17.803Z,17.60
2018-07-01T04:54:47.029Z,17.60
2018-07-01T04:57:16.291Z,17.60
2018-07-01T04:59:45.577Z,17.70
2018-07-01T05:04:43.703Z,17.80
2018-07-01T05:07:12.996Z,17.90
2018-07-01T05:09:43.424Z,18.10
2018-07-01T05:12:12.770Z,18.40
2018-07-01T05:14:42.444Z,18.60
2018-07-01T05:17:11.852Z,18.60
2018-07-01T05:19:41.064Z,18.70
2018-07-01T05:22:11.279Z,18.80
2018-07-01T05:24:40.566Z,18.80
2018-07-01T05:27:09.912Z,18.80
2018-07-01T05:29:39.216Z,18.80
2018-07-01T05:32:10.074Z,19.00
2018-07-01T05:34:39.834Z,19.20
2018-07-01T05:37:09.156Z,19.10
2018-07-01T05:39:38.502Z,19.10
2018-07-01T05:42:07.861Z,19.10
2018-07-01T05:44:38.157Z,19.00
2018-07-01T05:47:07.493Z,19.10
2018-07-01T05:49:36.755Z,19.10
2018-07-01T05:52:08.303Z,19.20
2018-07-01T05:54:37.722Z,19.40
2018-07-01T05:57:07.323Z,19.60
2018-07-01T05:59:37.540Z,19.70
2018-07-01T06:02:06.888Z,19.70
2018-07-01T06:04:36.218Z,19.70
2018-07-01T06:07:05.489Z,19.70
2018-07-01T06:09:35.289Z,19.80
2018-07-01T06:12:04.603Z,19.80
2018-07-01T06:14:33.825Z,19.90
2018-07-01T06:17:03.252Z,20.10
2018-07-01T06:19:32.845Z,20.10
2018-07-01T06:22:02.251Z,20.10
2018-07-01T06:24:31.623Z,20.10
2018-07-01T06:27:01.669Z,20.10
2018-07-01T06:29:31.024Z,20.30
2018-07-01T06:32:00.480Z,20.30
2018-07-01T06:34:30.343Z,20.50
2018-07-01T06:36:59.624Z,20.50
2018-07-01T06:39:29.214Z,20.80
2018-07-01T06:41:58.518Z,20.90
2018-07-01T06:44:27.742Z,21.30
2018-07-01T06:46:57.066Z,21.60
2018-07-01T06:49:26.309Z,22.00
2018-07-01T06:51:56.280Z,22.20
2018-07-01T06:54:25.736Z,22.20
2018-07-01T06:56:55.018Z,22.10
2018-07-01T06:59:25.131Z,22.20
2018-07-01T07:01:54.424Z,22.20
2018-07-01T07:04:23.699Z,22.40
2018-07-01T07:06:52.920Z,22.40
2018-07-01T07:09:22.767Z,22.60
2018-07-01T07:11:51.979Z,22.70
2018-07-01T07:14:21.236Z,22.70
2018-07-01T07:16:50.763Z,22.70
2018-07-01T07:19:20.043Z,22.90
2018-07-01T07:21:49.344Z,22.90
2018-07-01T07:24:18.704Z,23.30
2018-07-01T07:26:47.949Z,23.30
2018-07-01T07:29:17.190Z,23.50
2018-07-01T07:31:46.529Z,23.70
2018-07-01T07:36:44.724Z,24.00
2018-07-01T07:39:14.096Z,24.10
2018-07-01T07:41:43.320Z,24.30
2018-07-01T07:44:12.677Z,24.20
2018-07-01T07:46:42.864Z,24.10
2018-07-01T07:49:12.100Z,24.00
2018-07-01T07:51:41.560Z,23.80
2018-07-01T07:54:17.585Z,23.80
2018-07-01T07:56:47.454Z,23.90
2018-07-01T07:59:16.684Z,23.90
2018-07-01T08:01:46.337Z,24.00
2018-07-01T08:04:15.729Z,24.10
2018-07-01T08:06:45.040Z,24.30
2018-07-01T08:09:14.465Z,24.20
2018-07-01T08:11:43.745Z,24.30
2018-07-01T08:14:13.056Z,24.40
2018-07-01T08:16:42.434Z,24.40
2018-07-01T08:19:12.066Z,24.40
2018-07-01T08:21:41.781Z,24.60
2018-07-01T08:24:11.329Z,24.80
2018-07-01T08:26:40.842Z,24.70
2018-07-01T08:29:10.283Z,24.80
2018-07-01T08:31:39.659Z,24.70
2018-07-01T08:34:09.524Z,24.70
2018-07-01T08:36:38.972Z,24.90
2018-07-01T08:39:11.151Z,25.00
2018-07-01T08:45:15.584Z,25.10
2018-07-01T08:47:44.896Z,25.00
2018-07-01T08:50:14.191Z,25.00
2018-07-01T08:52:43.864Z,25.10
2018-07-01T08:55:13.782Z,25.00
2018-07-01T08:57:43.127Z,25.00
2018-07-01T09:00:16.315Z,25.00
2018-07-01T09:15:45.952Z,24.80
2018-07-01T09:18:15.407Z,25.30
2018-07-01T09:20:44.704Z,25.30
2018-07-01T09:23:14.459Z,25.30
2018-07-01T09:25:43.752Z,25.40
2018-07-01T09:28:13.258Z,25.50
2018-07-01T09:30:42.511Z,25.30
2018-07-01T09:33:11.846Z,25.30
2018-07-01T09:35:41.319Z,25.40
2018-07-01T09:38:10.591Z,25.60
2018-07-01T09:40:39.801Z,25.70
2018-07-01T09:43:09.327Z,25.80
2018-07-01T09:45:38.836Z,25.70
2018-07-01T09:48:08.999Z,25.90
2018-07-01T09:50:38.296Z,25.90
2018-07-01T09:53:07.291Z,25.90
2018-07-01T09:55:36.559Z,25.80
2018-07-01T09:58:05.934Z,25.90
2018-07-01T10:00:35.171Z,26.00
2018-07-01T10:03:04.584Z,26.00
2018-07-01T10:05:33.912Z,25.90
2018-07-01T10:08:03.431Z,25.80
2018-07-01T10:10:32.956Z,25.70
2018-07-01T10:13:02.607Z,25.70
2018-07-01T10:15:32.051Z,25.80
2018-07-01T10:18:01.294Z,25.90
2018-07-01T10:20:30.599Z,26.00
2018-07-01T10:22:59.899Z,26.00
2018-07-01T10:25:29.155Z,26.10
2018-07-01T10:27:58.396Z,26.10
2018-07-01T10:30:27.747Z,26.20
2018-07-01T10:32:57.078Z,26.10
2018-07-01T10:35:26.797Z,26.00
2018-07-01T10:37:56.172Z,26.00
2018-07-01T10:40:25.525Z,26.10
2018-07-01T10:42:54.800Z,26.20
2018-07-01T10:45:24.115Z,26.20
2018-07-01T10:47:54.177Z,26.10
2018-07-01T10:50:23.502Z,26.10
2018-07-01T10:52:52.961Z,26.30
2018-07-01T10:55:23.128Z,26.30
2018-07-01T10:57:52.678Z,26.30
2018-07-01T11:00:22.144Z,26.20
2018-07-01T11:02:51.458Z,26.20
2018-07-01T11:05:21.432Z,26.00
2018-07-01T11:07:50.804Z,26.10
2018-07-01T11:10:20.460Z,26.10
2018-07-01T11:12:49.948Z,26.00
2018-07-01T11:15:19.449Z,26.00
2018-07-01T11:17:48.644Z,26.10
2018-07-01T11:20:17.952Z,26.00
2018-07-01T11:22:47.154Z,26.10
2018-07-01T11:25:16.465Z,26.20
2018-07-01T11:27:45.723Z,26.30
2018-07-01T11:30:15.234Z,26.30
2018-07-01T11:32:44.605Z,26.20
2018-07-01T11:35:13.790Z,26.20
2018-07-01T11:37:43.091Z,26.30
2018-07-01T11:40:12.387Z,26.40
2018-07-01T11:42:42.063Z,26.40
2018-07-01T11:45:11.333Z,26.30
2018-07-01T11:47:40.617Z,26.20
2018-07-01T11:50:10.081Z,26.10
2018-07-01T11:55:08.155Z,26.30
2018-07-01T11:57:37.732Z,26.30
2018-07-01T12:00:07.442Z,26.30
2018-07-01T12:02:36.716Z,26.30
2018-07-01T12:05:16.663Z,26.40
2018-07-01T12:07:35.517Z,26.40
2018-07-01T12:10:07.799Z,26.50
2018-07-01T12:12:37.212Z,26.50
2018-07-01T12:15:06.513Z,26.50
2018-07-01T12:17:35.962Z,26.50
2018-07-01T12:20:05.769Z,26.50
2018-07-01T12:22:35.182Z,26.30
2018-07-01T12:25:05.031Z,26.30
2018-07-01T12:27:34.423Z,26.20
2018-07-01T12:30:03.898Z,26.30
2018-07-01T12:32:33.196Z,26.40
2018-07-01T12:35:02.498Z,26.50
2018-07-01T12:37:32.623Z,26.60
2018-07-01T12:40:01.932Z,26.60
2018-07-01T12:42:31.222Z,26.60
2018-07-01T12:45:00.472Z,26.50
2018-07-01T12:47:29.970Z,26.50
2018-07-01T12:49:59.581Z,26.70
2018-07-01T12:52:29.193Z,26.50
2018-07-01T12:54:58.451Z,26.60
2018-07-01T12:57:28.071Z,26.60
2018-07-01T12:59:57.285Z,26.80
2018-07-01T13:02:26.689Z,26.60
2018-07-01T13:04:56.171Z,26.70
2018-07-01T13:07:25.436Z,26.70
2018-07-01T13:09:54.936Z,26.70
2018-07-01T13:12:24.215Z,27.00
2018-07-01T13:14:53.436Z,27.00
2018-07-01T13:17:22.696Z,27.00
2018-07-01T13:19:51.966Z,26.90
2018-07-01T13:22:21.192Z,26.80
2018-07-01T13:24:50.505Z,26.80
2018-07-01T13:27:19.744Z,26.80
2018-07-01T13:29:49.814Z,26.90
2018-07-01T13:32:19.106Z,26.90
2018-07-01T13:34:48.390Z,26.90
2018-07-01T13:37:17.690Z,26.80
2018-07-01T13:39:46.975Z,26.80
2018-07-01T13:42:16.230Z,27.00
2018-07-01T13:44:45.494Z,26.90
2018-07-01T13:47:14.756Z,26.90
2018-07-01T13:49:44.205Z,26.90
2018-07-01T13:52:13.458Z,26.90
2018-07-01T13:54:43.000Z,27.00
2018-07-01T13:57:12.271Z,27.10
2018-07-01T13:59:41.568Z,27.00
2018-07-01T14:02:10.833Z,27.10
2018-07-01T14:04:40.166Z,27.00
2018-07-01T14:07:09.495Z,26.90
2018-07-01T14:09:38.811Z,26.90
2018-07-01T14:12:08.085Z,26.80
2018-07-01T14:14:37.467Z,27.00
2018-07-01T14:17:06.782Z,27.10
2018-07-01T14:19:36.355Z,27.00
2018-07-01T14:22:05.764Z,27.00
2018-07-01T14:24:35.343Z,27.00
2018-07-01T14:27:05.074Z,27.10
2018-07-01T14:29:34.608Z,27.10
2018-07-01T14:32:03.891Z,27.10
2018-07-01T14:34:33.143Z,27.10
2018-07-01T14:37:02.424Z,27.10
2018-07-01T14:39:31.642Z,27.10
2018-07-01T14:42:00.848Z,27.10
2018-07-01T14:44:30.148Z,27.00
2018-07-01T14:46:59.433Z,27.00
2018-07-01T14:49:28.740Z,26.90
2018-07-01T14:51:57.983Z,26.90
2018-07-01T14:54:27.280Z,26.90
2018-07-01T14:56:56.940Z,26.90
2018-07-01T14:59:26.129Z,26.90
2018-07-01T15:01:55.376Z,26.90
2018-07-01T15:04:24.629Z,26.80
2018-07-01T15:06:53.877Z,26.90
2018-07-01T15:09:23.147Z,26.80
2018-07-01T15:11:52.433Z,26.90
2018-07-01T15:14:22.086Z,26.90
2018-07-01T15:16:51.322Z,26.90
2018-07-01T15:19:20.595Z,26.90
2018-07-01T15:21:49.841Z,26.90
2018-07-01T15:24:19.111Z,26.90
2018-07-01T15:26:48.356Z,27.00
2018-07-01T15:29:17.749Z,27.00
2018-07-01T15:31:47.022Z,26.90
2018-07-01T15:34:16.364Z,26.90
2018-07-01T15:36:46.040Z,26.80
2018-07-01T15:39:15.559Z,26.70
2018-07-01T15:41:44.855Z,26.80
2018-07-01T15:44:14.080Z,26.80
2018-07-01T15:46:43.781Z,26.90
2018-07-01T15:49:13.100Z,26.80
2018-07-01T15:51:42.715Z,26.80
2018-07-01T15:54:12.152Z,26.80
2018-07-01T15:56:41.412Z,26.70
2018-07-01T15:59:10.687Z,26.70
2018-07-01T16:01:39.894Z,26.70
2018-07-01T16:04:09.184Z,26.70
2018-07-01T16:06:38.483Z,26.70
2018-07-01T16:09:09.792Z,26.60
2018-07-01T16:11:39.194Z,26.70
2018-07-01T16:14:08.516Z,26.70
2018-07-01T16:19:07.181Z,26.60
2018-07-01T16:21:36.410Z,26.60
2018-07-01T16:24:05.891Z,26.60
2018-07-01T16:26:40.549Z,26.60
2018-07-01T16:29:09.775Z,26.60
2018-07-01T16:31:39.020Z,26.60
2018-07-01T16:34:08.263Z,26.60
2018-07-01T16:36:37.519Z,26.50
2018-07-01T16:39:10.831Z,26.50
2018-07-01T16:41:40.031Z,26.50
2018-07-01T16:44:09.849Z,26.50
2018-07-01T16:46:39.716Z,26.40
2018-07-01T16:49:09.251Z,26.40
2018-07-01T16:51:38.564Z,26.30
2018-07-01T16:54:08.387Z,26.20
2018-07-01T16:56:37.612Z,26.20
2018-07-01T16:59:06.868Z,26.20
2018-07-01T17:01:36.128Z,26.20
2018-07-01T17:04:05.302Z,26.10
2018-07-01T17:06:34.562Z,26.10
2018-07-01T17:09:04.493Z,26.10
2018-07-01T17:11:33.752Z,26.10
2018-07-01T17:14:03.320Z,26.10
2018-07-01T17:16:32.723Z,26.00
2018-07-01T17:19:06.506Z,26.00
2018-07-01T17:21:35.787Z,25.90
2018-07-01T17:24:05.161Z,25.90
2018-07-01T17:26:34.414Z,25.80
2018-07-01T17:29:03.719Z,25.80
2018-07-01T17:31:42.079Z,25.90
2018-07-01T17:34:11.381Z,25.80
2018-07-01T17:36:40.609Z,25.80
2018-07-01T17:39:10.554Z,25.80
2018-07-01T17:41:40.812Z,25.80
2018-07-01T17:44:10.897Z,25.70
2018-07-01T17:46:40.181Z,25.60
2018-07-01T17:49:09.511Z,25.60
2018-07-01T17:51:40.295Z,25.50
2018-07-01T17:54:09.550Z,25.50
2018-07-01T17:56:39.346Z,25.50
2018-07-01T17:59:09.124Z,25.40
2018-07-01T18:01:38.442Z,25.40
2018-07-01T18:04:07.695Z,25.30
2018-07-01T18:06:36.991Z,25.30
2018-07-01T18:09:10.545Z,25.20
2018-07-01T18:11:39.987Z,25.20
2018-07-01T18:16:42.856Z,25.20
2018-07-01T18:19:17.987Z,25.10
2018-07-01T18:22:04.611Z,25.00
2018-07-01T18:24:42.854Z,25.00
2018-07-01T18:26:48.277Z,25.00
2018-07-01T18:29:19.774Z,24.90
2018-07-01T18:31:47.556Z,24.90
2018-07-01T18:34:17.970Z,24.90
2018-07-01T18:36:47.862Z,24.90
2018-07-01T18:39:17.553Z,24.80
2018-07-01T18:41:46.897Z,24.80
2018-07-01T18:44:19.933Z,24.70
2018-07-01T18:46:49.668Z,24.60
2018-07-01T18:49:19.399Z,24.60
2018-07-01T18:51:48.784Z,24.60
2018-07-01T18:54:19.618Z,24.60
2018-07-01T18:56:49.098Z,24.50
2018-07-01T18:59:18.549Z,24.40
2018-07-01T19:01:48.836Z,24.40
2018-07-01T19:04:18.498Z,24.30
2018-07-01T19:06:47.843Z,24.30
2018-07-01T19:09:17.306Z,24.20
2018-07-01T19:11:47.289Z,24.10
2018-07-01T19:14:17.247Z,24.00
2018-07-01T19:16:51.244Z,24.00
2018-07-01T19:19:24.579Z,23.90
2018-07-01T19:21:53.896Z,23.80
2018-07-01T19:24:23.754Z,23.80
2018-07-01T19:26:53.097Z,23.70
2018-07-01T19:29:23.804Z,23.70
2018-07-01T19:31:58.826Z,23.50
2018-07-01T19:34:29.093Z,23.40
2018-07-01T19:36:59.377Z,23.30
2018-07-01T19:39:28.737Z,23.20
2018-07-01T19:41:58.429Z,23.10
2018-07-01T19:44:28.006Z,23.00
2018-07-01T20:06:28.367Z,22.90
2018-07-01T20:11:39.545Z,22.40
2018-07-01T20:14:08.858Z,22.30
2018-07-01T20:16:38.201Z,22.20
2018-07-01T20:19:07.606Z,22.10
2018-07-01T20:21:36.872Z,22.00
2018-07-01T20:24:06.179Z,21.80
2018-07-01T20:26:35.516Z,21.60
2018-07-01T20:29:05.004Z,21.70
2018-07-01T20:31:34.353Z,21.50
2018-07-01T20:34:04.083Z,21.50
2018-07-01T20:36:35.396Z,21.30
2018-07-01T20:39:08.922Z,21.30
2018-07-01T20:41:38.572Z,21.20
2018-07-01T20:44:07.869Z,21.20
2018-07-01T20:46:37.250Z,21.10
2018-07-01T20:49:06.972Z,21.00
2018-07-01T20:54:05.638Z,20.90
2018-07-01T20:56:34.902Z,20.80
2018-07-01T20:59:04.331Z,20.80
2018-07-01T21:01:33.764Z,20.80
2018-07-01T21:04:03.068Z,20.80
2018-07-01T21:06:32.369Z,20.80
2018-07-01T21:09:01.675Z,20.70
2018-07-01T21:11:30.982Z,20.70
2018-07-01T21:14:00.247Z,20.70
2018-07-01T21:16:29.434Z,20.60
2018-07-01T21:18:58.713Z,20.60
2018-07-01T21:21:27.947Z,20.50
2018-07-01T21:23:57.257Z,20.40
2018-07-01T21:26:26.750Z,20.40
2018-07-01T21:28:55.986Z,20.40
2018-07-01T21:31:25.443Z,20.30
2018-07-01T21:36:23.473Z,20.20
2018-07-01T21:38:52.714Z,20.20
2018-07-01T21:41:22.026Z,20.20
2018-07-01T21:43:51.994Z,20.20
2018-07-01T21:46:21.308Z,20.20
2018-07-01T21:48:50.549Z,20.10
2018-07-01T21:51:19.934Z,20.10
2018-07-01T21:53:49.165Z,20.10
2018-07-01T21:56:18.406Z,20.10
2018-07-01T21:58:47.840Z,20.00
2018-07-01T22:01:17.104Z,20.00
2018-07-01T22:03:46.377Z,20.00
2018-07-01T22:06:15.654Z,20.00
2018-07-01T22:08:44.940Z,20.00
2018-07-01T22:11:53.111Z,20.00
2018-07-01T22:14:42.394Z,20.00
2018-07-01T22:17:12.802Z,20.00
2018-07-01T22:19:42.051Z,19.90
2018-07-01T22:22:11.831Z,19.80
2018-07-01T22:24:41.208Z,19.80
2018-07-01T22:27:10.643Z,19.70
2018-07-01T22:29:39.946Z,19.70
2018-07-01T22:32:09.273Z,19.70
2018-07-01T22:34:38.591Z,19.80
2018-07-01T22:37:07.920Z,19.70
2018-07-01T22:39:37.183Z,19.80
2018-07-01T22:42:06.528Z,19.70
2018-07-01T22:44:35.765Z,19.70
2018-07-01T22:47:05.023Z,19.70
2018-07-01T22:49:34.322Z,19.70
2018-07-01T22:52:03.515Z,19.80
2018-07-01T22:54:32.782Z,19.80
2018-07-01T22:57:02.116Z,19.80
2018-07-01T22:59:31.394Z,19.70
2018-07-01T23:03:17.459Z,19.70
2018-07-01T23:05:46.463Z,19.70
2018-07-01T23:08:15.879Z,19.60
2018-07-01T23:10:45.117Z,19.60
2018-07-01T23:13:14.799Z,19.60
2018-07-01T23:15:43.993Z,19.50
2018-07-01T23:18:13.234Z,19.50
2018-07-01T23:20:42.481Z,19.50
2018-07-01T23:23:11.728Z,19.50
2018-07-01T23:25:40.982Z,19.40
2018-07-01T23:28:10.162Z,19.40
2018-07-01T23:30:39.403Z,19.40
2018-07-01T23:33:08.638Z,19.30
2018-07-01T23:35:37.890Z,19.30
2018-07-01T23:38:07.098Z,19.20
2018-07-01T23:40:36.288Z,19.20
2018-07-01T23:43:05.522Z,19.10
2018-07-01T23:45:34.754Z,19.00
2018-07-01T23:48:03.933Z,19.00
2018-07-01T23:50:33.150Z,19.00
2018-07-01T23:53:02.433Z,18.90
2018-07-01T23:55:31.675Z,18.90
2018-07-01T23:58:00.946Z,18.90
